createdAt,value
2022-11-19T00:00:04.197Z,-1.86
2022-11-19T00:05:11.163Z,-1.65
2022-11-19T00:10:16.866Z,-1.90
2022-11-19T00:15:24.634Z,-1.76
2022-11-19T00:20:30.407Z,-1.72
2022-11-19T00:25:35.437Z,-1.82
2022-11-19T00:30:50.120Z,-2.10
2022-11-19T00:35:58.386Z,-2.18
2022-11-19T00:41:03.514Z,-1.92
2022-11-19T00:46:11.775Z,-1.96
2022-11-19T00:51:17.328Z,-2.29
2022-11-19T00:56:24.720Z,-2.19
2022-11-19T01:01:32.573Z,-2.24
2022-11-19T01:06:37.535Z,-2.33
2022-11-19T01:11:42.765Z,-2.60
2022-11-19T01:16:50.430Z,-2.67
2022-11-19T01:21:55.418Z,-2.49
2022-11-19T01:27:00.559Z,-2.53
2022-11-19T01:32:08.507Z,-2.75
2022-11-19T01:37:13.363Z,-3.11
2022-11-19T01:42:43.972Z,-2.93
2022-11-19T01:47:51.608Z,-2.87
2022-11-19T01:52:57.699Z,-2.69
2022-11-19T01:58:06.306Z,-2.96
2022-11-19T02:03:14.789Z,-2.86
2022-11-19T02:08:42.667Z,-3.04
2022-11-19T02:13:57.423Z,-3.47
2022-11-19T02:19:19.109Z,-3.27
2022-11-19T02:24:54.178Z,-2.93
2022-11-19T02:30:10.256Z,-2.84
2022-11-19T02:35:21.752Z,-3.27
2022-11-19T02:40:31.768Z,-3.32
2022-11-19T02:45:44.581Z,-3.20
2022-11-19T02:50:52.250Z,-3.08
2022-11-19T02:56:10.316Z,-3.00
2022-11-19T03:01:32.330Z,-3.07
2022-11-19T03:06:38.063Z,-3.37
2022-11-19T03:11:46.871Z,-3.62
2022-11-19T03:17:02.531Z,-3.64
2022-11-19T03:22:12.963Z,-3.63
2022-11-19T03:27:22.750Z,-3.60
2022-11-19T03:32:34.072Z,-3.92
2022-11-19T03:37:41.883Z,-3.86
2022-11-19T03:42:50.944Z,-3.45
2022-11-19T03:48:02.823Z,-3.43
2022-11-19T03:53:08.113Z,-3.52
2022-11-19T03:58:14.773Z,-3.81
2022-11-19T04:03:22.434Z,-3.84
2022-11-19T04:08:27.774Z,-4.12
2022-11-19T04:13:32.747Z,-3.60
2022-11-19T04:18:40.676Z,-3.64
2022-11-19T04:23:45.594Z,-3.89
2022-11-19T04:28:50.907Z,-3.73
2022-11-19T04:33:58.490Z,-3.82
2022-11-19T04:39:03.741Z,-3.64
2022-11-19T04:44:09.052Z,-3.69
2022-11-19T04:49:16.973Z,-3.79
2022-11-19T04:54:22.069Z,-4.00
2022-11-19T04:59:27.054Z,-4.18
2022-11-19T05:04:34.620Z,-4.05
2022-11-19T05:09:39.703Z,-4.29
2022-11-19T05:14:45.118Z,-3.97
2022-11-19T05:19:52.655Z,-4.35
2022-11-19T05:24:57.631Z,-4.36
2022-11-19T05:30:02.529Z,-4.05
2022-11-19T05:35:11.861Z,-4.61
2022-11-19T05:40:18.305Z,-4.46
2022-11-19T05:45:23.663Z,-4.08
2022-11-19T05:50:31.273Z,-4.58
2022-11-19T05:55:36.294Z,-4.81
2022-11-19T06:00:41.153Z,-4.73
2022-11-19T06:05:48.596Z,-4.83
2022-11-19T06:10:53.835Z,-4.83
2022-11-19T06:15:58.790Z,-4.98
2022-11-19T06:21:12.030Z,-5.02
2022-11-19T06:26:28.673Z,-4.96
2022-11-19T06:31:41.102Z,-4.89
2022-11-19T06:36:50.762Z,-4.95
2022-11-19T06:42:16.152Z,-4.76
2022-11-19T06:47:21.314Z,-4.26
2022-11-19T06:52:29.162Z,-4.66
2022-11-19T06:57:34.288Z,-4.27
2022-11-19T07:02:39.304Z,-4.01
2022-11-19T07:07:46.978Z,-4.51
2022-11-19T07:12:51.851Z,-4.56
2022-11-19T07:17:59.520Z,-4.37
2022-11-19T07:23:07.178Z,-4.42
2022-11-19T07:28:12.951Z,-4.36
2022-11-19T07:33:18.148Z,-4.40
2022-11-19T07:38:26.042Z,-4.07
2022-11-19T07:43:31.215Z,-4.39
2022-11-19T07:48:36.023Z,-4.33
2022-11-19T07:53:44.255Z,-4.21
2022-11-19T07:58:49.808Z,-4.13
2022-11-19T08:03:56.895Z,-3.82
2022-11-19T08:09:06.780Z,-3.47
2022-11-19T08:14:16.592Z,-3.46
2022-11-19T08:19:23.046Z,-3.00
2022-11-19T08:24:31.437Z,-2.55
2022-11-19T08:29:39.598Z,-2.46
2022-11-19T08:34:44.715Z,-2.36
2022-11-19T08:39:52.806Z,-2.24
2022-11-19T08:44:59.197Z,-2.60
2022-11-19T08:50:06.126Z,-2.03
2022-11-19T08:55:14.060Z,-1.79
2022-11-19T09:00:20.693Z,-1.56
2022-11-19T09:05:28.447Z,-1.40
2022-11-19T09:10:45.439Z,-1.87
2022-11-19T09:15:51.367Z,-1.80
2022-11-19T09:20:59.280Z,-1.55
2022-11-19T09:26:08.854Z,-1.78
2022-11-19T09:31:18.793Z,-1.59
2022-11-19T09:36:24.162Z,-1.18
2022-11-19T09:41:50.674Z,-0.83
2022-11-19T09:47:02.536Z,-0.69
2022-11-19T09:52:09.828Z,-0.56
2022-11-19T09:57:24.042Z,-0.29
2022-11-19T10:02:29.448Z,-0.22
2022-11-19T10:07:48.349Z,-0.34
2022-11-19T10:13:31.181Z,0.22
2022-11-19T10:18:45.235Z,1.15
2022-11-19T10:23:56.182Z,0.91
2022-11-19T10:29:09.056Z,0.68
2022-11-19T10:34:23.550Z,2.83
2022-11-19T10:39:34.244Z,1.94
2022-11-19T10:44:50.370Z,1.89
2022-11-19T10:49:57.543Z,3.78
2022-11-19T10:55:07.960Z,3.95
2022-11-19T11:00:19.225Z,5.07
2022-11-19T11:05:26.704Z,3.29
2022-11-19T11:10:45.599Z,3.59
2022-11-19T11:15:56.239Z,3.64
2022-11-19T11:21:02.420Z,3.69
2022-11-19T11:26:11.353Z,5.38
2022-11-19T11:31:31.988Z,4.91
2022-11-19T11:36:41.187Z,5.66
2022-11-19T11:42:06.935Z,6.12
2022-11-19T11:47:19.352Z,5.01
2022-11-19T11:52:34.336Z,5.03
2022-11-19T11:57:53.578Z,4.76
2022-11-19T12:03:07.120Z,4.74
2022-11-19T12:08:26.695Z,6.31
2022-11-19T12:14:04.301Z,4.69
2022-11-19T12:19:36.186Z,6.11
2022-11-19T12:24:58.889Z,5.90
2022-11-19T12:30:08.563Z,6.28
2022-11-19T12:35:25.302Z,6.09
2022-11-19T12:40:49.353Z,5.23
2022-11-19T12:46:05.201Z,5.29
2022-11-19T12:51:23.363Z,5.63
2022-11-19T12:56:39.215Z,5.86
2022-11-19T13:01:51.578Z,5.40
2022-11-19T13:07:02.634Z,5.69
2022-11-19T13:12:10.603Z,5.26
2022-11-19T13:17:21.903Z,4.09
2022-11-19T13:22:34.598Z,4.43
2022-11-19T13:27:40.372Z,4.13
2022-11-19T13:32:54.410Z,4.37
2022-11-19T13:38:08.793Z,3.97
2022-11-19T13:43:32.495Z,3.95
2022-11-19T13:48:43.377Z,5.39
2022-11-19T13:53:51.317Z,4.65
2022-11-19T13:58:58.915Z,3.93
2022-11-19T14:04:30.569Z,4.52
2022-11-19T14:09:46.801Z,3.28
2022-11-19T14:15:35.954Z,4.14
2022-11-19T14:20:55.260Z,3.24
2022-11-19T14:26:16.509Z,3.85
2022-11-19T14:31:24.394Z,3.16
2022-11-19T14:36:40.791Z,3.07
2022-11-19T14:41:48.958Z,3.59
2022-11-19T14:46:55.327Z,3.77
2022-11-19T14:52:04.124Z,3.51
2022-11-19T14:57:22.258Z,3.62
2022-11-19T15:02:33.009Z,3.28
2022-11-19T15:07:44.292Z,3.23
2022-11-19T15:12:53.242Z,2.96
2022-11-19T15:18:16.775Z,2.36
2022-11-19T15:23:33.432Z,2.19
2022-11-19T15:28:56.853Z,2.53
2022-11-19T15:34:43.070Z,1.78
2022-11-19T15:39:57.827Z,1.99
2022-11-19T15:45:10.867Z,1.94
2022-11-19T15:50:20.707Z,1.83
2022-11-19T15:55:30.831Z,1.22
2022-11-19T16:00:47.474Z,1.96
2022-11-19T16:06:04.457Z,1.64
2022-11-19T16:11:21.955Z,1.58
2022-11-19T16:16:44.904Z,1.57
2022-11-19T16:21:54.307Z,1.22
2022-11-19T16:26:59.911Z,1.20
2022-11-19T16:32:10.405Z,1.27
2022-11-19T16:37:17.530Z,1.00
2022-11-19T16:42:27.027Z,0.88
2022-11-19T16:47:36.177Z,0.92
2022-11-19T16:52:43.113Z,0.79
2022-11-19T16:57:50.176Z,0.74
2022-11-19T17:02:58.489Z,0.68
2022-11-19T17:08:09.919Z,0.79
2022-11-19T17:13:31.957Z,0.56
2022-11-19T17:18:39.684Z,0.00
2022-11-19T17:23:51.884Z,-0.57
2022-11-19T17:29:03.555Z,-0.70
2022-11-19T17:34:26.024Z,-0.54
2022-11-19T17:39:30.995Z,-0.36
2022-11-19T17:44:42.103Z,-0.66
2022-11-19T17:49:51.833Z,-1.00
2022-11-19T17:54:59.823Z,-1.11
2022-11-19T18:00:05.030Z,-0.97
2022-11-19T18:05:23.261Z,-0.79
2022-11-19T18:10:28.315Z,-0.44
2022-11-19T18:15:33.372Z,-0.64
2022-11-19T18:20:41.743Z,-1.20
2022-11-19T18:25:46.700Z,-0.99
2022-11-19T18:30:51.729Z,-1.24
2022-11-19T18:35:59.356Z,-1.09
2022-11-19T18:41:04.414Z,-1.39
2022-11-19T18:46:09.956Z,-1.72
2022-11-19T18:51:17.669Z,-1.81
2022-11-19T18:56:22.860Z,-1.99
2022-11-19T19:01:30.843Z,-2.03
2022-11-19T19:06:39.766Z,-2.26
2022-11-19T19:11:57.132Z,-2.28
2022-11-19T19:17:02.260Z,-2.38
2022-11-19T19:22:11.078Z,-2.38
2022-11-19T19:27:16.150Z,-2.39
2022-11-19T19:32:22.580Z,-2.27
2022-11-19T19:37:30.053Z,-2.32
2022-11-19T19:42:39.817Z,-2.27
2022-11-19T19:47:46.137Z,-2.27
2022-11-19T19:52:53.664Z,-2.49
2022-11-19T19:58:00.031Z,-2.40
2022-11-19T20:03:05.219Z,-2.48
2022-11-19T20:08:12.847Z,-2.49
2022-11-19T20:13:30.281Z,-2.48
2022-11-19T20:18:36.962Z,-2.71
2022-11-19T20:23:45.897Z,-2.68
2022-11-19T20:28:51.701Z,-2.71
2022-11-19T20:33:58.550Z,-2.74
2022-11-19T20:39:06.992Z,-2.74
2022-11-19T20:44:23.536Z,-2.75
2022-11-19T20:49:31.195Z,-2.53
2022-11-19T20:54:38.704Z,-2.74
2022-11-19T20:59:43.714Z,-2.74
2022-11-19T21:04:48.698Z,-2.94
2022-11-19T21:09:56.614Z,-3.02
2022-11-19T21:15:02.195Z,-2.79
2022-11-19T21:20:08.202Z,-2.75
2022-11-19T21:25:15.828Z,-3.17
2022-11-19T21:30:23.777Z,-3.38
2022-11-19T21:35:28.732Z,-3.17
2022-11-19T21:40:40.235Z,-3.12
2022-11-19T21:45:45.287Z,-3.36
2022-11-19T21:50:51.157Z,-3.42
2022-11-19T21:56:00.004Z,-3.35
2022-11-19T22:01:06.005Z,-3.37
2022-11-19T22:06:12.819Z,-3.38
2022-11-19T22:11:33.906Z,-3.39
2022-11-19T22:16:40.652Z,-3.48
2022-11-19T22:21:46.743Z,-3.56
2022-11-19T22:26:54.311Z,-3.56
2022-11-19T22:32:00.702Z,-3.55
2022-11-19T22:37:07.977Z,-3.51
2022-11-19T22:42:15.629Z,-3.40
2022-11-19T22:47:20.810Z,-3.51
2022-11-19T22:52:25.692Z,-3.70
2022-11-19T22:57:33.627Z,-3.50
2022-11-19T23:02:39.271Z,-3.60
2022-11-19T23:07:45.556Z,-3.93
2022-11-19T23:13:05.518Z,-3.91
2022-11-19T23:18:12.111Z,-3.97
2022-11-19T23:23:16.932Z,-3.93
2022-11-19T23:28:24.564Z,-3.90
2022-11-19T23:33:30.638Z,-3.96
2022-11-19T23:38:36.936Z,-3.96
2022-11-19T23:43:45.518Z,-4.06
2022-11-19T23:48:52.160Z,-3.90
2022-11-19T23:53:57.263Z,-4.03
2022-11-19T23:59:06.765Z,-4.33
